Current Weather

Logansport Cass County Airpor

Logansport Cass County Airpor, Indiana (KGGP)

Report from: Thursday, May 19, 2022 2:15 PM EDT
Current time: Thursday, May 19, 2022 2:30 PM EDT

Nearby weather
Weather history
Weather forecast

Temperature26.0°C (78.8°F)
Dew point1.0°C (33.8°F)
Winds 15 kts (7.7 m/s, 17.3 mph) South-Southwest (200°)
Wind gusts 19 kts (9.8 m/s, 21.9 mph)
Visibility10 mi. (16.1 km)
Clouds Sky clear
Altimeter29.72 in.Hg (1006 mB)
Relative humidity20 %
Density altitude1,603 ft. (489 m)
Remarks Fully automated report
Automated weather observing station with precipitation discriminator
Flight conditions Visual Meteorological Conditions
Raw dataKGGP 191815Z AUTO 20015G19KT 10SM CLR 26/01 A2972 RMK AO2
An error has occurred. This application may no longer respond until reloaded. Reload 🗙